Time;durP1;ratioP1;P1;durP2;ratioP2;P2;SDS_P1;SDS_P2;PMS_P1;PMS_P2;Temp;Humidity;BMP_temperature;BMP_pressure;BME280_temperature;BME280_humidity;BME280_pressure;Samples;Min_cycle;Max_cycle;Signal;HPM_P1;HPM_P2
2022/09/30 00:00:19;;;;;;;0.00;0.00;;;9.00;99.90;;;;;;5017609;28;20760;-64
2022/09/30 00:02:44;;;;;;;0.00;0.00;;;9.00;99.90;;;;;;5032003;28;20226;-64
2022/09/30 00:05:10;;;;;;;1.00;0.10;;;9.00;99.90;;;;;;5037855;28;20181;-64
2022/09/30 00:07:35;;;;;;;1.17;0.85;;;8.90;99.90;;;;;;5044759;28;20181;-64
2022/09/30 00:10:02;;;;;;;0.00;0.00;;;8.90;99.90;;;;;;5050901;28;20671;-64
2022/09/30 00:12:27;;;;;;;0.00;0.00;;;8.90;99.90;;;;;;5036723;28;20656;-64
2022/09/30 00:14:53;;;;;;;0.00;0.00;;;8.90;99.90;;;;;;5044355;28;20181;-64
2022/09/30 00:17:19;;;;;;;0.00;0.00;;;8.80;99.90;;;;;;5038255;28;20188;-64
2022/09/30 00:19:45;;;;;;;0.00;0.00;;;8.90;99.90;;;;;;5038489;28;20209;-64
2022/09/30 00:22:11;;;;;;;0.00;0.00;;;8.90;99.90;;;;;;5036086;28;20185;-64
2022/09/30 00:24:37;;;;;;;0.00;0.00;;;8.80;99.90;;;;;;5048251;28;20177;-64
2022/09/30 00:27:02;;;;;;;0.00;0.00;;;8.80;99.90;;;;;;5037516;28;20178;-64
2022/09/30 00:29:28;;;;;;;0.03;0.03;;;8.80;99.90;;;;;;5041045;28;20256;-64
2022/09/30 00:31:53;;;;;;;0.00;0.00;;;8.80;99.90;;;;;;5044392;28;20181;-64
2022/09/30 00:34:19;;;;;;;0.00;0.00;;;8.70;99.90;;;;;;5037418;28;20224;-64
2022/09/30 00:36:50;;;;;;;0.00;0.00;;;8.70;99.90;;;;;;5046793;28;20178;-64
2022/09/30 00:39:19;;;;;;;0.00;0.00;;;8.70;99.90;;;;;;5051014;28;20208;-64
2022/09/30 00:41:47;;;;;;;0.00;0.00;;;8.70;99.90;;;;;;5039195;28;20601;-64
2022/09/30 00:44:57;;;;;;;0.00;0.00;;;8.60;99.90;;;;;;5052172;28;20185;-64
2022/09/30 00:47:23;;;;;;;0.00;0.00;;;8.60;99.90;;;;;;5037076;28;20177;-64
2022/09/30 00:49:50;;;;;;;0.00;0.00;;;8.60;99.90;;;;;;5052205;28;20181;-64
2022/09/30 00:52:15;;;;;;;0.00;0.00;;;8.60;99.90;;;;;;5049080;28;20188;-64
2022/09/30 00:54:41;;;;;;;0.00;0.00;;;8.60;99.90;;;;;;5050076;28;20190;-64
2022/09/30 00:57:07;;;;;;;0.00;0.00;;;8.60;99.90;;;;;;5043485;28;20175;-64
2022/09/30 00:59:40;;;;;;;0.00;0.00;;;8.50;99.90;;;;;;5050200;28;20185;-64
2022/09/30 01:02:08;;;;;;;0.00;0.00;;;8.50;99.90;;;;;;5053143;28;20327;-63
2022/09/30 01:04:34;;;;;;;0.00;0.00;;;8.50;99.90;;;;;;5044137;28;20717;-64
2022/09/30 01:07:03;;;;;;;0.00;0.00;;;8.60;99.90;;;;;;5041893;28;20220;-64
2022/09/30 01:09:32;;;;;;;0.00;0.00;;;8.60;99.90;;;;;;5046807;28;20174;-64
2022/09/30 01:11:58;;;;;;;0.00;0.00;;;8.60;99.90;;;;;;5035513;28;20182;-64
2022/09/30 01:14:27;;;;;;;0.25;0.25;;;8.60;99.90;;;;;;5042804;28;20217;-64
2022/09/30 01:17:25;;;;;;;0.00;0.00;;;8.60;99.90;;;;;;5052341;28;20189;-64
2022/09/30 01:19:57;;;;;;;0.00;0.00;;;8.60;99.90;;;;;;5026484;28;20181;-64
2022/09/30 01:22:40;;;;;;;0.70;0.70;;;8.60;99.90;;;;;;5050175;28;20185;-63
2022/09/30 01:25:33;;;;;;;0.10;0.10;;;8.60;99.90;;;;;;5023751;28;20332;-63
2022/09/30 01:28:17;;;;;;;0.00;0.00;;;8.60;99.90;;;;;;5036656;28;20185;-64
2022/09/30 01:30:51;;;;;;;0.17;0.17;;;8.60;99.90;;;;;;5041265;28;20186;-64
2022/09/30 01:33:21;;;;;;;0.43;0.20;;;8.50;99.90;;;;;;5052467;28;20208;-64
2022/09/30 01:36:01;;;;;;;1.00;1.00;;;8.50;99.90;;;;;;5054092;28;20185;-64
2022/09/30 01:38:45;;;;;;;0.10;0.10;;;8.40;99.90;;;;;;5041836;28;20192;-64
2022/09/30 01:41:24;;;;;;;0.10;0.10;;;8.40;99.90;;;;;;5049455;28;20186;-64
2022/09/30 01:44:18;;;;;;;0.00;0.00;;;8.40;99.90;;;;;;5049903;28;20185;-64
2022/09/30 01:46:54;;;;;;;0.00;0.00;;;8.40;99.90;;;;;;5040837;28;20189;-64
2022/09/30 01:49:33;;;;;;;0.13;0.05;;;8.40;99.90;;;;;;5038065;28;20268;-63
2022/09/30 01:52:11;;;;;;;0.52;0.10;;;8.40;99.90;;;;;;5041605;28;20261;-64
2022/09/30 01:54:52;;;;;;;0.00;0.00;;;8.40;99.90;;;;;;5036089;28;20267;-64
2022/09/30 01:57:20;;;;;;;0.20;0.20;;;8.40;99.90;;;;;;5051768;28;20200;-64
2022/09/30 02:00:07;;;;;;;0.10;0.10;;;8.40;99.90;;;;;;5047264;28;20189;-64
2022/09/30 02:02:52;;;;;;;0.10;0.10;;;8.40;99.90;;;;;;5048540;28;20561;-64
2022/09/30 02:05:21;;;;;;;0.00;0.00;;;8.40;99.90;;;;;;5042747;28;20269;-64
2022/09/30 02:08:13;;;;;;;0.38;0.35;;;8.40;99.90;;;;;;5040170;28;20178;-64
2022/09/30 02:10:46;;;;;;;0.60;0.60;;;8.40;99.90;;;;;;5029017;28;20186;-64
2022/09/30 02:13:29;;;;;;;0.63;0.63;;;8.40;99.90;;;;;;5036752;28;20201;-64
2022/09/30 02:15:59;;;;;;;2.03;1.08;;;8.40;99.90;;;;;;5043523;28;20186;-64
2022/09/30 02:18:46;;;;;;;0.35;0.35;;;8.40;99.90;;;;;;5042333;28;20177;-64
2022/09/30 02:21:16;;;;;;;0.25;0.25;;;8.40;99.90;;;;;;5027752;28;20231;-65
2022/09/30 02:23:44;;;;;;;1.35;0.80;;;8.30;99.90;;;;;;5047942;28;20197;-64
2022/09/30 02:26:20;;;;;;;0.10;0.10;;;8.40;99.90;;;;;;5037916;28;20170;-64
2022/09/30 02:29:22;;;;;;;0.17;0.17;;;8.30;99.90;;;;;;5043057;28;20231;-64
2022/09/30 02:31:51;;;;;;;0.10;0.10;;;8.40;99.90;;;;;;5027021;28;20185;-64
2022/09/30 02:34:25;;;;;;;0.00;0.00;;;8.30;99.90;;;;;;5051172;28;20235;-64
2022/09/30 02:37:00;;;;;;;0.00;0.00;;;8.30;99.90;;;;;;5050910;28;20181;-64
2022/09/30 02:39:34;;;;;;;0.00;0.00;;;8.30;99.90;;;;;;5047159;28;20538;-64
2022/09/30 02:42:13;;;;;;;0.00;0.00;;;8.30;99.90;;;;;;5034820;28;20192;-64
2022/09/30 02:44:39;;;;;;;0.00;0.00;;;8.30;99.90;;;;;;5029601;28;20658;-64
2022/09/30 02:47:13;;;;;;;0.17;0.17;;;8.30;99.90;;;;;;5042125;28;20169;-63
2022/09/30 02:49:46;;;;;;;0.00;0.00;;;8.30;99.90;;;;;;5039708;28;20189;-64
2022/09/30 02:52:33;;;;;;;0.00;0.00;;;8.30;99.90;;;;;;5033819;28;20236;-64
2022/09/30 02:55:11;;;;;;;0.32;0.32;;;8.30;99.90;;;;;;5035002;28;20190;-64
2022/09/30 02:57:55;;;;;;;0.00;0.00;;;8.20;99.90;;;;;;5044042;28;20655;-64
2022/09/30 03:00:21;;;;;;;0.00;0.00;;;8.20;99.90;;;;;;5033293;28;20185;-64
2022/09/30 03:02:47;;;;;;;0.00;0.00;;;8.20;99.90;;;;;;5033445;28;20588;-64
2022/09/30 03:05:13;;;;;;;0.00;0.00;;;8.10;99.90;;;;;;5045993;28;20184;-65
2022/09/30 03:07:40;;;;;;;0.00;0.00;;;8.10;99.90;;;;;;5048766;28;20178;-64
2022/09/30 03:10:13;;;;;;;0.00;0.00;;;8.10;99.90;;;;;;5036938;28;20189;-64
2022/09/30 03:13:06;;;;;;;0.30;0.30;;;8.10;99.90;;;;;;5033091;28;20233;-64
2022/09/30 03:16:09;;;;;;;0.00;0.00;;;8.10;99.90;;;;;;5050024;28;20193;-64
2022/09/30 03:18:57;;;;;;;0.00;0.00;;;8.10;99.90;;;;;;5038302;28;20181;-63
2022/09/30 03:21:33;;;;;;;0.05;0.05;;;8.10;99.90;;;;;;5042516;28;20185;-63
2022/09/30 03:24:01;;;;;;;0.00;0.00;;;8.10;99.90;;;;;;5033408;28;20637;-63
2022/09/30 03:27:03;;;;;;;0.00;0.00;;;8.10;99.90;;;;;;5032610;28;20182;-64
2022/09/30 03:29:55;;;;;;;0.00;0.00;;;8.10;99.90;;;;;;5041193;28;20205;-63
2022/09/30 03:32:44;;;;;;;0.08;0.08;;;8.10;99.90;;;;;;5049963;28;20261;-64
2022/09/30 03:35:51;;;;;;;0.10;0.10;;;8.10;99.90;;;;;;5024206;28;20669;-63
2022/09/30 03:38:23;;;;;;;0.00;0.00;;;8.10;99.90;;;;;;5032659;28;20186;-64
2022/09/30 03:41:18;;;;;;;0.00;0.00;;;8.10;99.90;;;;;;5037735;28;20189;-64
2022/09/30 03:44:03;;;;;;;0.00;0.00;;;8.10;99.90;;;;;;5039067;28;20177;-63
2022/09/30 03:46:37;;;;;;;0.03;0.03;;;8.10;99.90;;;;;;5049127;28;20264;-63
2022/09/30 03:49:13;;;;;;;0.00;0.00;;;8.10;99.90;;;;;;5040073;28;20177;-63
2022/09/30 03:51:40;;;;;;;0.00;0.00;;;8.10;99.90;;;;;;5047805;28;20186;-64
2022/09/30 03:54:10;;;;;;;0.00;0.00;;;8.10;99.90;;;;;;5049141;28;20307;-63
2022/09/30 03:56:41;;;;;;;0.00;0.00;;;8.10;99.90;;;;;;5039161;28;20191;-64
2022/09/30 03:59:29;;;;;;;0.85;0.85;;;8.10;99.90;;;;;;5042410;28;20261;-63
2022/09/30 04:01:58;;;;;;;0.00;0.00;;;8.20;99.90;;;;;;5033355;28;20715;-62
2022/09/30 04:04:24;;;;;;;0.10;0.10;;;8.20;99.90;;;;;;5032773;28;20594;-65
2022/09/30 04:06:51;;;;;;;0.00;0.00;;;8.20;99.90;;;;;;5040163;28;20239;-65
2022/09/30 04:09:16;;;;;;;0.00;0.00;;;8.20;99.90;;;;;;5032860;28;20272;-65
2022/09/30 04:11:42;;;;;;;0.00;0.00;;;8.20;99.90;;;;;;5042400;28;20231;-65
2022/09/30 04:14:08;;;;;;;0.00;0.00;;;8.20;99.90;;;;;;5042528;28;20253;-66
2022/09/30 04:16:33;;;;;;;0.00;0.00;;;8.20;99.90;;;;;;5050806;28;20635;-63
2022/09/30 04:18:59;;;;;;;0.00;0.00;;;8.10;99.90;;;;;;5032645;28;20186;-62
2022/09/30 04:21:27;;;;;;;0.20;0.20;;;8.10;99.90;;;;;;5044409;28;20181;-63
2022/09/30 04:23:55;;;;;;;2.17;0.10;;;8.10;99.90;;;;;;5050948;28;20186;-60
2022/09/30 04:26:21;;;;;;;0.15;0.10;;;8.10;99.90;;;;;;5041029;28;20485;-65
2022/09/30 04:28:47;;;;;;;0.25;0.22;;;8.10;99.90;;;;;;5041180;28;20188;-65
2022/09/30 04:31:15;;;;;;;0.47;0.30;;;8.10;99.90;;;;;;5049490;28;20368;-62
2022/09/30 04:33:41;;;;;;;0.20;0.20;;;8.10;99.90;;;;;;5046067;28;20288;-63
2022/09/30 04:36:07;;;;;;;0.00;0.00;;;8.00;99.90;;;;;;5034965;28;20206;-64
2022/09/30 04:38:33;;;;;;;0.00;0.00;;;8.00;99.90;;;;;;5040686;28;20229;-61
2022/09/30 04:41:02;;;;;;;0.25;0.17;;;8.00;99.90;;;;;;5049155;28;20185;-66
2022/09/30 04:43:28;;;;;;;0.00;0.00;;;8.00;99.90;;;;;;5047569;28;20178;-63
2022/09/30 04:45:54;;;;;;;0.10;0.10;;;8.00;99.90;;;;;;5045445;28;20181;-63
2022/09/30 04:48:21;;;;;;;0.00;0.00;;;8.00;99.90;;;;;;5038235;28;20193;-63
2022/09/30 04:50:47;;;;;;;0.10;0.10;;;8.00;99.90;;;;;;5039700;28;20179;-62
2022/09/30 04:53:13;;;;;;;0.10;0.10;;;8.00;99.90;;;;;;5050116;28;20201;-63
2022/09/30 04:55:40;;;;;;;0.43;0.10;;;8.00;99.90;;;;;;5053146;28;20216;-62
2022/09/30 04:58:06;;;;;;;0.10;0.10;;;7.90;99.90;;;;;;5052985;28;20318;-62
2022/09/30 05:00:31;;;;;;;0.00;0.00;;;7.90;99.90;;;;;;5052635;28;20185;-63
2022/09/30 05:02:57;;;;;;;0.20;0.20;;;7.90;99.90;;;;;;5054229;28;20236;-63
2022/09/30 05:05:23;;;;;;;0.00;0.00;;;7.90;99.90;;;;;;5049758;28;20656;-63
2022/09/30 05:07:48;;;;;;;0.22;0.22;;;7.90;99.90;;;;;;5048917;28;20177;-63
2022/09/30 05:10:15;;;;;;;0.00;0.00;;;7.90;99.90;;;;;;5054530;28;20227;-63
2022/09/30 05:12:40;;;;;;;1.35;0.10;;;7.90;99.90;;;;;;5051746;28;20228;-63
2022/09/30 05:15:07;;;;;;;0.00;0.00;;;7.90;99.90;;;;;;5054101;28;20220;-63
2022/09/30 05:17:33;;;;;;;0.00;0.00;;;7.90;99.90;;;;;;5052537;28;20489;-63
2022/09/30 05:19:58;;;;;;;0.10;0.10;;;7.90;99.90;;;;;;5054437;28;20173;-63
2022/09/30 05:22:25;;;;;;;0.00;0.00;;;7.90;99.90;;;;;;5054410;28;20200;-63
2022/09/30 05:24:51;;;;;;;0.00;0.00;;;7.90;99.90;;;;;;5054519;28;20586;-63
2022/09/30 05:27:18;;;;;;;0.08;0.08;;;7.90;99.90;;;;;;5054458;28;20637;-63
2022/09/30 05:29:43;;;;;;;0.50;0.50;;;7.90;99.90;;;;;;5054488;28;20268;-63
2022/09/30 05:32:10;;;;;;;0.30;0.25;;;8.00;99.90;;;;;;5054130;28;20265;-63
2022/09/30 05:34:37;;;;;;;0.10;0.10;;;8.00;99.90;;;;;;5054373;28;20221;-63
2022/09/30 05:37:03;;;;;;;0.00;0.00;;;8.00;99.90;;;;;;5054351;28;20185;-63
2022/09/30 05:39:29;;;;;;;0.52;0.10;;;8.00;99.90;;;;;;5053838;28;20181;-63
2022/09/30 05:41:56;;;;;;;0.10;0.10;;;8.00;99.90;;;;;;5034274;28;20174;-63
2022/09/30 05:44:21;;;;;;;0.00;0.00;;;8.00;99.90;;;;;;5034337;28;20166;-63
2022/09/30 05:46:47;;;;;;;0.00;0.00;;;8.10;99.90;;;;;;5034351;28;20576;-63
2022/09/30 05:49:13;;;;;;;0.00;0.00;;;8.10;99.90;;;;;;5034083;28;20189;-63
2022/09/30 05:51:38;;;;;;;0.28;0.28;;;8.10;99.90;;;;;;5032964;28;20179;-63
2022/09/30 05:54:04;;;;;;;0.00;0.00;;;8.20;99.90;;;;;;5034120;28;20638;-63
2022/09/30 05:56:30;;;;;;;0.15;0.10;;;8.20;99.90;;;;;;5033858;28;20179;-63
2022/09/30 05:58:55;;;;;;;0.10;0.10;;;8.20;99.90;;;;;;5034116;28;20205;-64
2022/09/30 06:01:21;;;;;;;0.00;0.00;;;8.20;99.90;;;;;;5033947;28;20687;-63
2022/09/30 06:03:47;;;;;;;0.00;0.00;;;8.20;99.90;;;;;;5033759;28;20268;-63
2022/09/30 06:06:13;;;;;;;0.00;0.00;;;8.20;99.90;;;;;;5033491;28;20170;-63
2022/09/30 06:08:40;;;;;;;0.00;0.00;;;8.20;99.90;;;;;;5033866;28;20556;-63
2022/09/30 06:11:11;;;;;;;0.30;0.20;;;8.20;99.90;;;;;;5033893;28;20209;-63
2022/09/30 06:13:37;;;;;;;0.13;0.13;;;8.20;99.90;;;;;;5033632;28;20210;-63
2022/09/30 06:16:04;;;;;;;0.00;0.00;;;8.30;99.90;;;;;;5033823;28;20261;-64
2022/09/30 06:18:30;;;;;;;0.55;0.52;;;8.30;99.90;;;;;;5033480;28;20174;-63
2022/09/30 06:20:57;;;;;;;0.00;0.00;;;8.40;99.90;;;;;;5033631;28;20171;-64
2022/09/30 06:23:22;;;;;;;0.00;0.00;;;8.50;99.90;;;;;;5033676;28;20174;-63
2022/09/30 06:25:52;;;;;;;0.00;0.00;;;8.50;99.90;;;;;;5033548;28;20251;-63
2022/09/30 06:28:18;;;;;;;0.10;0.10;;;8.60;99.90;;;;;;5033448;28;20178;-63
2022/09/30 06:30:44;;;;;;;0.10;0.10;;;8.80;99.90;;;;;;5033425;28;20189;-64
2022/09/30 06:33:11;;;;;;;0.08;0.08;;;9.10;99.90;;;;;;5033209;28;20220;-63
2022/09/30 06:35:41;;;;;;;0.00;0.00;;;9.40;99.90;;;;;;5033465;28;20260;-64
2022/09/30 06:38:09;;;;;;;0.00;0.00;;;9.70;99.90;;;;;;5033258;28;20186;-63
2022/09/30 06:40:35;;;;;;;0.10;0.10;;;10.20;99.90;;;;;;5033089;28;20317;-63
2022/09/30 06:43:01;;;;;;;0.10;0.10;;;10.70;99.90;;;;;;5033150;28;20236;-64
2022/09/30 06:45:28;;;;;;;1.15;0.82;;;11.20;99.90;;;;;;5032950;28;20254;-63
2022/09/30 06:47:58;;;;;;;0.00;0.00;;;11.60;99.90;;;;;;5033128;28;20178;-64
2022/09/30 06:50:24;;;;;;;0.00;0.00;;;12.00;99.90;;;;;;5032999;28;20185;-63
2022/09/30 06:52:50;;;;;;;0.00;0.00;;;12.10;99.90;;;;;;5033110;28;20205;-64
2022/09/30 06:55:23;;;;;;;0.15;0.15;;;11.90;99.90;;;;;;5032940;28;20231;-63
2022/09/30 06:57:49;;;;;;;0.00;0.00;;;11.70;99.90;;;;;;5032967;28;20201;-64
2022/09/30 07:00:15;;;;;;;0.00;0.00;;;11.30;99.90;;;;;;5032791;28;20217;-63
2022/09/30 07:02:41;;;;;;;0.00;0.00;;;11.10;99.90;;;;;;5032696;28;20221;-63
2022/09/30 07:05:07;;;;;;;0.38;0.22;;;11.00;99.90;;;;;;5032663;28;20182;-64
2022/09/30 07:07:33;;;;;;;0.45;0.20;;;10.90;99.90;;;;;;5032825;28;20182;-64
2022/09/30 07:09:59;;;;;;;0.00;0.00;;;10.80;99.90;;;;;;5032756;28;20188;-64
2022/09/30 07:12:25;;;;;;;0.00;0.00;;;10.90;99.90;;;;;;5032559;28;20535;-64
2022/09/30 07:14:51;;;;;;;0.00;0.00;;;11.00;99.90;;;;;;5032518;28;20721;-63
2022/09/30 07:17:17;;;;;;;1.20;0.60;;;11.10;99.90;;;;;;5032244;28;20209;-63
2022/09/30 07:19:42;;;;;;;0.00;0.00;;;11.10;99.90;;;;;;5032596;28;20178;-63
2022/09/30 07:22:26;;;;;;;0.00;0.00;;;11.30;99.90;;;;;;5032338;28;20174;-63
2022/09/30 07:24:52;;;;;;;0.00;0.00;;;11.50;99.90;;;;;;5031286;28;20174;-63
2022/09/30 07:27:18;;;;;;;0.00;0.00;;;11.70;99.90;;;;;;5032328;28;20186;-64
2022/09/30 07:29:44;;;;;;;0.00;0.00;;;11.90;99.90;;;;;;5032425;28;20284;-64
2022/09/30 07:32:10;;;;;;;0.00;0.00;;;12.20;99.90;;;;;;5032220;28;20185;-63
2022/09/30 07:34:37;;;;;;;0.10;0.10;;;12.50;99.90;;;;;;5032215;28;20206;-64
2022/09/30 07:37:03;;;;;;;0.00;0.00;;;12.60;99.90;;;;;;5032263;28;20174;-64
2022/09/30 07:39:30;;;;;;;0.00;0.00;;;12.70;99.90;;;;;;5032015;28;20534;-64
2022/09/30 07:41:55;;;;;;;0.10;0.10;;;12.70;99.90;;;;;;5032125;28;20719;-63
2022/09/30 07:44:25;;;;;;;0.00;0.00;;;13.00;99.90;;;;;;5032106;28;20170;-64
2022/09/30 07:46:50;;;;;;;0.17;0.17;;;13.50;99.90;;;;;;5032099;28;20204;-64
2022/09/30 07:49:23;;;;;;;0.00;0.00;;;14.00;99.90;;;;;;5032060;28;20638;-64
2022/09/30 07:51:49;;;;;;;0.00;0.00;;;14.60;99.90;;;;;;5032005;28;20308;-64
2022/09/30 07:54:18;;;;;;;0.00;0.00;;;15.30;99.90;;;;;;5031881;28;20303;-64
2022/09/30 07:56:45;;;;;;;0.00;0.00;;;16.00;99.90;;;;;;5031949;28;20174;-64
2022/09/30 07:59:11;;;;;;;0.00;0.00;;;16.60;99.90;;;;;;5031861;28;20183;-64
2022/09/30 08:01:37;;;;;;;0.03;0.03;;;17.10;99.90;;;;;;5032104;28;20186;-64
2022/09/30 08:04:06;;;;;;;0.00;0.00;;;17.60;99.30;;;;;;5031673;28;20229;-64
2022/09/30 08:06:37;;;;;;;0.00;0.00;;;17.90;98.30;;;;;;5031716;28;20177;-64
2022/09/30 08:09:02;;;;;;;0.00;0.00;;;18.10;97.40;;;;;;5031794;28;20514;-64
2022/09/30 08:11:32;;;;;;;0.13;0.13;;;18.40;96.80;;;;;;5031648;28;20181;-64
2022/09/30 08:13:58;;;;;;;0.10;0.10;;;18.50;95.70;;;;;;5031822;28;20284;-64
2022/09/30 08:16:25;;;;;;;0.00;0.00;;;18.50;95.10;;;;;;5031620;28;20692;-64
2022/09/30 08:18:58;;;;;;;0.00;0.00;;;18.30;95.00;;;;;;5031935;28;20206;-64
2022/09/30 08:21:24;;;;;;;0.05;0.05;;;18.00;94.90;;;;;;5031662;28;20259;-64
2022/09/30 08:23:50;;;;;;;0.20;0.20;;;17.70;95.30;;;;;;5030483;28;20528;-64
2022/09/30 08:26:16;;;;;;;0.47;0.25;;;17.40;95.70;;;;;;5031637;28;20261;-64
2022/09/30 08:28:45;;;;;;;0.00;0.00;;;17.10;95.80;;;;;;5031758;28;20588;-64
2022/09/30 08:31:16;;;;;;;0.00;0.00;;;16.70;96.40;;;;;;5035072;28;20252;-63
2022/09/30 08:33:43;;;;;;;0.20;0.20;;;16.30;97.10;;;;;;5035601;28;20567;-63
2022/09/30 08:36:16;;;;;;;0.10;0.10;;;16.00;97.90;;;;;;5035269;28;20637;-63
2022/09/30 08:38:42;;;;;;;0.00;0.00;;;15.80;98.10;;;;;;5035657;28;20201;-63
2022/09/30 08:41:27;;;;;;;0.00;0.00;;;15.60;98.40;;;;;;5035143;28;20634;-63
2022/09/30 08:44:02;;;;;;;0.00;0.00;;;15.40;99.00;;;;;;5035503;28;20197;-63
2022/09/30 08:46:39;;;;;;;0.10;0.10;;;15.30;99.50;;;;;;5035331;28;20181;-63
2022/09/30 08:49:18;;;;;;;0.00;0.00;;;15.20;99.90;;;;;;5035341;28;20618;-63
2022/09/30 08:51:47;;;;;;;0.00;0.00;;;15.20;99.90;;;;;;5035257;28;20182;-63
2022/09/30 08:54:16;;;;;;;0.10;0.10;;;15.30;99.90;;;;;;5035154;28;20210;-63
2022/09/30 08:56:44;;;;;;;0.00;0.00;;;15.20;99.90;;;;;;5035325;28;20519;-64
2022/09/30 08:59:22;;;;;;;0.00;0.00;;;15.20;99.90;;;;;;5035140;28;20212;-63
2022/09/30 09:01:52;;;;;;;0.00;0.00;;;15.10;99.90;;;;;;5035141;28;20174;-64
2022/09/30 09:04:18;;;;;;;0.10;0.10;;;15.10;99.90;;;;;;5034770;28;20233;-64
2022/09/30 09:07:02;;;;;;;0.20;0.20;;;15.10;99.90;;;;;;5035058;28;20174;-64
2022/09/30 09:09:42;;;;;;;0.00;0.00;;;15.10;99.90;;;;;;5034818;28;20182;-63
2022/09/30 09:12:14;;;;;;;0.10;0.10;;;15.00;99.90;;;;;;5034877;28;20257;-63
2022/09/30 09:14:54;;;;;;;0.15;0.15;;;15.00;99.90;;;;;;5034852;28;20803;-63
2022/09/30 09:17:46;;;;;;;0.08;0.05;;;15.00;99.90;;;;;;5034865;28;20178;-63
2022/09/30 09:20:16;;;;;;;0.00;0.00;;;15.10;99.90;;;;;;5034785;28;20213;-63
2022/09/30 09:22:44;;;;;;;0.03;0.03;;;15.20;99.90;;;;;;5034899;28;20178;-64
2022/09/30 09:25:17;;;;;;;1.77;0.10;;;15.30;99.90;;;;;;5034775;28;20265;-63
2022/09/30 09:27:53;;;;;;;0.00;0.00;;;15.50;99.90;;;;;;5034727;28;20265;-64
2022/09/30 09:30:25;;;;;;;0.00;0.00;;;15.70;99.90;;;;;;5034580;28;20192;-64
2022/09/30 09:33:10;;;;;;;0.10;0.10;;;15.90;99.90;;;;;;5034559;28;20251;-64
2022/09/30 09:35:56;;;;;;;0.10;0.10;;;16.10;99.90;;;;;;5034674;28;20194;-64
2022/09/30 09:38:57;;;;;;;0.15;0.10;;;16.60;99.90;;;;;;5034480;28;20170;-64
2022/09/30 09:41:33;;;;;;;0.00;0.00;;;17.00;99.90;;;;;;5033676;28;20189;-63
2022/09/30 09:44:13;;;;;;;0.00;0.00;;;17.20;99.90;;;;;;5034480;28;20180;-64
2022/09/30 09:46:58;;;;;;;1.75;0.32;;;17.40;99.90;;;;;;5034335;28;20783;-64
2022/09/30 09:49:28;;;;;;;0.43;0.28;;;17.80;99.90;;;;;;5034149;28;20720;-64
2022/09/30 09:52:11;;;;;;;0.55;0.55;;;18.00;99.20;;;;;;5034188;28;20263;-64
2022/09/30 09:54:51;;;;;;;0.10;0.10;;;18.20;98.90;;;;;;5034230;28;20221;-64
2022/09/30 09:57:26;;;;;;;0.00;0.00;;;18.40;99.40;;;;;;5034150;28;20184;-64
2022/09/30 10:03:17;;;;;;;0.30;0.30;;;18.70;97.30;;;;;;5033866;28;20245;-64
2022/09/30 10:05:43;;;;;;;0.20;0.20;;;18.70;97.40;;;;;;5034056;28;20185;-64
2022/09/30 10:08:09;;;;;;;0.17;0.17;;;18.50;96.60;;;;;;5033723;28;20502;-63
2022/09/30 10:10:44;;;;;;;0.00;0.00;;;18.20;97.00;;;;;;5033979;28;20189;-64
2022/09/30 10:13:41;;;;;;;0.35;0.35;;;18.00;97.00;;;;;;5033546;28;20202;-64
2022/09/30 10:16:24;;;;;;;0.03;0.03;;;18.00;98.00;;;;;;5029088;28;20194;-63
2022/09/30 10:18:50;;;;;;;0.00;0.00;;;18.20;98.40;;;;;;5033711;28;20533;-64
2022/09/30 10:21:21;;;;;;;0.17;0.17;;;18.20;98.90;;;;;;5033483;28;20185;-64
2022/09/30 10:23:47;;;;;;;0.70;0.00;;;18.30;98.20;;;;;;5033614;28;20182;-64
2022/09/30 10:26:13;;;;;;;0.00;0.00;;;18.70;97.80;;;;;;5033495;28;20296;-64
2022/09/30 10:28:55;;;;;;;0.20;0.20;;;19.00;97.20;;;;;;5033572;28;20257;-64
2022/09/30 10:31:24;;;;;;;0.20;0.20;;;19.00;97.60;;;;;;5033366;28;20182;-64
2022/09/30 10:34:12;;;;;;;0.10;0.10;;;19.10;96.50;;;;;;5033474;28;20209;-64
2022/09/30 10:36:42;;;;;;;0.03;0.03;;;19.30;97.00;;;;;;5033466;28;20244;-64
2022/09/30 10:39:22;;;;;;;0.00;0.00;;;19.30;97.00;;;;;;5033183;28;20301;-64
2022/09/30 10:41:47;;;;;;;0.10;0.10;;;19.30;95.60;;;;;;5033121;28;20251;-64
2022/09/30 10:44:20;;;;;;;0.00;0.00;;;19.50;95.80;;;;;;5033130;28;20174;-64
2022/09/30 10:46:49;;;;;;;0.10;0.10;;;19.60;96.00;;;;;;5033032;28;20690;-64
2022/09/30 10:49:28;;;;;;;0.00;0.00;;;19.80;95.00;;;;;;5033104;28;20178;-64
2022/09/30 10:51:55;;;;;;;0.10;0.10;;;20.20;94.80;;;;;;5032425;28;20225;-65
2022/09/30 10:54:48;;;;;;;0.35;0.10;;;20.50;94.40;;;;;;5032706;28;20214;-64
2022/09/30 10:57:28;;;;;;;0.00;0.00;;;20.70;93.00;;;;;;5032970;28;20179;-64
2022/09/30 11:00:05;;;;;;;0.00;0.00;;;20.60;94.10;;;;;;5033051;28;20178;-64
2022/09/30 11:02:45;;;;;;;0.10;0.10;;;20.70;92.40;;;;;;5032728;28;20177;-65
2022/09/30 11:05:30;;;;;;;0.13;0.13;;;20.50;92.30;;;;;;5032824;28;20196;-64
2022/09/30 11:08:16;;;;;;;0.70;0.70;;;20.50;91.60;;;;;;5032808;28;20174;-65
2022/09/30 11:11:01;;;;;;;0.13;0.13;;;20.40;93.20;;;;;;5032862;28;20242;-65
2022/09/30 11:13:39;;;;;;;0.00;0.00;;;20.30;92.80;;;;;;5032464;28;20300;-65
2022/09/30 11:16:08;;;;;;;0.05;0.05;;;20.30;92.80;;;;;;5032583;28;20269;-64
2022/09/30 11:18:51;;;;;;;0.03;0.03;;;20.00;92.10;;;;;;5032566;28;20264;-64
2022/09/30 11:21:28;;;;;;;0.00;0.00;;;19.70;92.70;;;;;;5032521;28;20264;-64
2022/09/30 11:24:15;;;;;;;0.00;0.00;;;19.50;92.60;;;;;;5032682;28;20174;-64
2022/09/30 11:27:04;;;;;;;0.10;0.10;;;19.60;93.80;;;;;;5032598;28;20228;-64
2022/09/30 11:29:57;;;;;;;0.00;0.00;;;19.70;91.10;;;;;;5029320;28;20194;-64
2022/09/30 11:32:48;;;;;;;0.00;0.00;;;19.70;90.50;;;;;;5032291;28;20633;-64
2022/09/30 11:35:36;;;;;;;0.10;0.10;;;19.40;90.30;;;;;;5032324;28;20213;-64
2022/09/30 11:38:34;;;;;;;0.00;0.00;;;19.00;90.60;;;;;;5032441;28;20181;-64
2022/09/30 11:41:25;;;;;;;0.00;0.00;;;18.80;91.50;;;;;;5032197;28;20178;-64
2022/09/30 11:44:12;;;;;;;0.00;0.00;;;18.70;91.30;;;;;;5032215;28;20182;-64
2022/09/30 11:46:41;;;;;;;0.00;0.00;;;18.60;91.60;;;;;;5032263;28;20209;-64
2022/09/30 11:49:07;;;;;;;0.00;0.00;;;18.60;92.00;;;;;;5032064;28;20197;-64
2022/09/30 11:52:10;;;;;;;0.05;0.05;;;18.50;92.30;;;;;;5032026;28;20182;-64
2022/09/30 11:55:07;;;;;;;0.00;0.00;;;18.50;93.00;;;;;;5032071;28;20216;-64
2022/09/30 11:57:41;;;;;;;0.00;0.00;;;18.60;92.30;;;;;;5032142;28;20166;-64
2022/09/30 12:00:16;;;;;;;0.00;0.00;;;18.50;92.10;;;;;;5031917;28;20676;-64
2022/09/30 12:02:46;;;;;;;0.20;0.20;;;18.40;92.30;;;;;;5031754;28;20590;-64
2022/09/30 12:05:38;;;;;;;0.00;0.00;;;18.30;92.70;;;;;;5031696;28;20217;-64
2022/09/30 12:08:29;;;;;;;0.13;0.13;;;18.30;93.00;;;;;;5031969;28;20209;-64
2022/09/30 12:11:10;;;;;;;0.00;0.00;;;18.40;93.20;;;;;;5031961;28;20174;-63
2022/09/30 12:13:43;;;;;;;0.00;0.00;;;18.50;92.60;;;;;;5031952;28;20240;-63
2022/09/30 12:16:22;;;;;;;0.00;0.00;;;18.70;92.50;;;;;;5031854;28;20166;-63
2022/09/30 12:18:55;;;;;;;0.00;0.00;;;18.70;92.40;;;;;;5031920;28;20188;-63
2022/09/30 12:21:28;;;;;;;0.15;0.15;;;18.80;92.00;;;;;;5031805;28;20174;-63
2022/09/30 12:24:02;;;;;;;0.00;0.00;;;18.90;92.10;;;;;;5031931;28;20265;-63
2022/09/30 12:26:29;;;;;;;0.20;0.15;;;18.90;92.10;;;;;;5031566;28;20570;-63
2022/09/30 12:32:20;;;;;;;0.00;0.00;;;18.90;90.90;;;;;;5031431;28;20232;-64
2022/09/30 12:34:56;;;;;;;0.10;0.05;;;19.00;91.30;;;;;;5031634;28;20517;-64
2022/09/30 12:37:58;;;;;;;0.00;0.00;;;19.10;91.50;;;;;;5031627;28;20201;-64
2022/09/30 12:40:42;;;;;;;0.00;0.00;;;19.10;91.90;;;;;;5031775;28;20182;-63
2022/09/30 12:43:21;;;;;;;0.00;0.00;;;19.10;91.30;;;;;;5031289;28;20206;-64
2022/09/30 12:46:17;;;;;;;0.00;0.00;;;19.00;91.40;;;;;;5031608;28;20197;-63
2022/09/30 12:48:56;;;;;;;0.05;0.05;;;19.00;91.40;;;;;;5031566;28;20185;-63
2022/09/30 12:51:33;;;;;;;0.05;0.05;;;18.90;91.30;;;;;;5031409;28;20184;-64
2022/09/30 12:54:36;;;;;;;0.00;0.00;;;18.90;91.00;;;;;;5031386;28;20213;-64
2022/09/30 12:57:05;;;;;;;0.15;0.15;;;19.20;91.20;;;;;;5031438;28;20170;-64
2022/09/30 12:59:33;;;;;;;0.00;0.00;;;19.50;90.80;;;;;;5043521;28;20325;-64
2022/09/30 13:02:00;;;;;;;0.32;0.05;;;19.80;89.60;;;;;;5038993;28;20253;-64
2022/09/30 13:04:41;;;;;;;0.03;0.03;;;20.00;89.70;;;;;;5044960;28;20626;-64
2022/09/30 13:07:11;;;;;;;0.03;0.03;;;20.30;87.90;;;;;;5040360;28;20192;-64
2022/09/30 13:10:20;;;;;;;0.00;0.00;;;20.50;85.60;;;;;;5041764;28;20174;-63
2022/09/30 13:12:46;;;;;;;0.00;0.00;;;20.50;84.40;;;;;;5037202;28;20186;-64
2022/09/30 13:15:27;;;;;;;0.00;0.00;;;20.50;84.90;;;;;;5033349;28;20688;-63
2022/09/30 13:17:52;;;;;;;0.00;0.00;;;20.40;85.80;;;;;;5054874;28;20632;-64
2022/09/30 13:20:49;;;;;;;0.10;0.10;;;20.30;86.00;;;;;;5038262;28;20224;-64
2022/09/30 13:23:39;;;;;;;0.00;0.00;;;20.30;85.60;;;;;;5038213;28;20176;-63
2022/09/30 13:26:30;;;;;;;0.13;0.13;;;20.30;84.90;;;;;;5054250;28;20185;-64
2022/09/30 13:29:15;;;;;;;0.00;0.00;;;20.00;84.40;;;;;;5050244;28;20201;-63
2022/09/30 13:31:44;;;;;;;0.00;0.00;;;19.80;86.90;;;;;;5037750;28;20300;-64